Time;durP1;ratioP1;P1;durP2;ratioP2;P2;SDS_P1;SDS_P2;PMS_P1;PMS_P2;Temp;Humidity;BMP_temperature;BMP_pressure;BME280_temperature;BME280_humidity;BME280_pressure;Samples;Min_cycle;Max_cycle;Signal;HPM_P1;HPM_P2
2021/01/08 00:01:23;;;;;;;13.47;8.47;;;;;;;1.12;100.00;97872.94;5113360;28;20237;-68
2021/01/08 00:03:49;;;;;;;12.70;7.80;;;;;;;1.21;100.00;97872.63;5113118;28;20358;-68
2021/01/08 00:06:17;;;;;;;12.43;8.20;;;;;;;1.28;100.00;97870.66;5113510;28;20249;-68
2021/01/08 00:08:43;;;;;;;13.17;8.17;;;;;;;1.36;100.00;97866.84;5111591;28;20216;-68
2021/01/08 00:11:10;;;;;;;13.17;8.73;;;;;;;1.49;100.00;97864.66;5113110;28;20305;-69
2021/01/08 00:13:36;;;;;;;13.33;9.30;;;;;;;1.51;100.00;97861.09;5113445;28;20210;-68
2021/01/08 00:16:02;;;;;;;12.70;8.40;;;;;;;1.56;100.00;97860.91;5113107;28;20235;-69
2021/01/08 00:18:28;;;;;;;11.10;8.20;;;;;;;1.61;100.00;97869.41;5113467;28;20267;-68
2021/01/08 00:20:54;;;;;;;11.67;8.23;;;;;;;1.61;100.00;97867.63;5113368;28;20206;-68
2021/01/08 00:23:20;;;;;;;13.17;7.83;;;;;;;1.58;100.00;97861.69;5113352;28;20221;-68
2021/01/08 00:25:50;;;;;;;11.97;8.10;;;;;;;1.66;100.00;97868.31;5112994;28;20296;-68
2021/01/08 00:28:17;;;;;;;13.27;8.90;;;;;;;1.68;100.00;97863.03;5113257;28;20213;-68
2021/01/08 00:30:43;;;;;;;10.63;7.90;;;;;;;1.75;100.00;97865.34;5113178;28;20236;-68
2021/01/08 00:33:09;;;;;;;12.33;8.30;;;;;;;1.70;100.00;97864.69;5111278;28;20254;-68
2021/01/08 00:35:40;;;;;;;9.67;7.13;;;;;;;1.70;100.00;97861.22;5113321;28;20204;-69
2021/01/08 00:38:06;;;;;;;11.97;8.00;;;;;;;1.65;100.00;97864.00;5112909;28;20217;-71
2021/01/08 00:40:32;;;;;;;11.83;7.97;;;;;;;1.68;100.00;97863.91;5113252;28;20255;-72
2021/01/08 00:42:58;;;;;;;11.77;7.47;;;;;;;1.68;100.00;97874.31;5113069;28;20663;-71
2021/01/08 00:45:25;;;;;;;10.30;7.57;;;;;;;1.68;100.00;97873.47;5116278;28;20208;-71
2021/01/08 00:47:51;;;;;;;10.33;6.97;;;;;;;1.69;100.00;97865.59;5116877;28;20202;-72
2021/01/08 00:50:17;;;;;;;9.90;6.43;;;;;;;1.69;100.00;97865.59;5116763;28;20233;-71
2021/01/08 00:52:43;;;;;;;10.87;7.47;;;;;;;1.60;100.00;97871.13;5116443;28;20255;-70
2021/01/08 00:55:10;;;;;;;8.93;6.80;;;;;;;1.67;100.00;97867.38;5116641;28;20560;-68
2021/01/08 00:57:36;;;;;;;10.53;7.20;;;;;;;1.69;100.00;97868.19;5116679;28;20279;-68
2021/01/08 01:00:04;;;;;;;8.87;6.80;;;;;;;1.69;100.00;97869.94;5114568;28;20233;-68
2021/01/08 01:02:32;;;;;;;11.43;7.33;;;;;;;1.71;100.00;97868.97;5116553;28;20217;-69
2021/01/08 01:04:58;;;;;;;9.93;7.10;;;;;;;1.72;100.00;97865.47;5116168;28;20690;-68
2021/01/08 01:07:24;;;;;;;8.93;6.37;;;;;;;1.77;100.00;97873.13;5116585;28;20214;-68
2021/01/08 01:09:50;;;;;;;9.53;6.77;;;;;;;1.72;100.00;97868.06;5116469;28;20567;-68
2021/01/08 01:12:16;;;;;;;11.07;7.50;;;;;;;1.72;100.00;97875.88;5115975;28;20214;-68
2021/01/08 01:14:43;;;;;;;10.97;7.43;;;;;;;1.71;100.00;97874.19;5116244;28;20217;-68
2021/01/08 01:17:09;;;;;;;9.87;6.70;;;;;;;1.74;100.00;97878.44;5115981;28;20209;-68
2021/01/08 01:19:35;;;;;;;9.57;6.43;;;;;;;1.56;100.00;97880.00;5116475;28;20214;-68
2021/01/08 01:22:02;;;;;;;9.53;6.60;;;;;;;1.35;100.00;97880.78;5115912;28;20206;-68
2021/01/08 01:24:28;;;;;;;9.40;6.30;;;;;;;1.19;100.00;97884.88;5116017;28;20579;-68
2021/01/08 01:26:55;;;;;;;9.33;6.27;;;;;;;1.04;100.00;97880.19;5114349;28;20267;-68
2021/01/08 01:29:21;;;;;;;8.47;6.03;;;;;;;0.94;100.00;97878.84;5115856;28;20302;-68
2021/01/08 01:31:47;;;;;;;7.80;5.40;;;;;;;0.76;100.00;97878.63;5115873;28;20202;-73
2021/01/08 01:34:14;;;;;;;8.90;6.60;;;;;;;0.69;100.00;97877.13;5115988;28;20228;-72
2021/01/08 01:36:41;;;;;;;8.77;6.23;;;;;;;0.64;100.00;97884.25;5115625;28;20683;-69
2021/01/08 01:39:07;;;;;;;9.87;6.53;;;;;;;0.64;100.00;97881.63;5115655;27;20565;-70
2021/01/08 01:41:33;;;;;;;8.73;6.23;;;;;;;0.58;100.00;97885.31;5115440;28;20205;-69
2021/01/08 01:43:59;;;;;;;7.67;6.17;;;;;;;0.60;100.00;97888.69;5115466;28;20694;-71
2021/01/08 01:46:25;;;;;;;9.27;6.07;;;;;;;0.62;100.00;97886.88;5115484;28;20713;-71
2021/01/08 01:48:52;;;;;;;8.63;6.23;;;;;;;0.66;100.00;97888.50;5115636;28;20232;-71
2021/01/08 01:51:20;;;;;;;7.40;5.23;;;;;;;0.68;100.00;97889.28;5114026;28;20218;-67
2021/01/08 01:53:47;;;;;;;8.90;6.23;;;;;;;0.71;100.00;97897.00;5115701;27;20244;-67
2021/01/08 01:56:13;;;;;;;8.60;6.03;;;;;;;0.68;100.00;97885.84;5114581;28;20213;-68
2021/01/08 01:58:39;;;;;;;9.53;6.17;;;;;;;0.63;100.00;97888.59;5115024;28;20279;-69
2021/01/08 02:01:06;;;;;;;7.03;5.13;;;;;;;0.67;100.00;97892.78;5115508;28;20307;-67
2021/01/08 02:03:36;;;;;;;8.27;5.80;;;;;;;0.66;100.00;97893.69;5115131;28;20206;-67
2021/01/08 02:06:06;;;;;;;8.87;5.70;;;;;;;0.66;100.00;97898.91;5115099;28;20675;-67
2021/01/08 02:08:32;;;;;;;10.17;6.30;;;;;;;0.72;100.00;97898.69;5115022;28;20221;-65
2021/01/08 02:11:02;;;;;;;10.03;6.63;;;;;;;0.85;100.00;97894.75;5114995;28;20241;-65
2021/01/08 02:13:34;;;;;;;9.97;5.90;;;;;;;0.99;100.00;97892.50;5115256;27;20263;-65
2021/01/08 02:16:01;;;;;;;9.23;6.10;;;;;;;1.04;100.00;97890.59;5115357;28;20209;-69
2021/01/08 02:18:28;;;;;;;9.60;6.30;;;;;;;1.12;100.00;97893.78;5113475;28;20242;-69
2021/01/08 02:20:59;;;;;;;9.03;6.33;;;;;;;1.12;100.00;97895.53;5115043;28;20603;-68
2021/01/08 02:23:30;;;;;;;7.00;5.30;;;;;;;1.19;100.00;97897.88;5114971;28;20217;-70
2021/01/08 02:25:57;;;;;;;10.23;6.50;;;;;;;1.23;100.00;97902.06;5114869;28;20209;-71
2021/01/08 02:28:24;;;;;;;8.53;6.33;;;;;;;1.25;100.00;97905.47;5114901;28;20209;-69
2021/01/08 02:30:52;;;;;;;9.83;6.43;;;;;;;1.29;100.00;97891.41;5114446;28;20229;-69
2021/01/08 02:33:20;;;;;;;9.80;6.53;;;;;;;1.33;100.00;97893.00;5114759;28;20663;-70
2021/01/08 02:35:48;;;;;;;8.40;5.40;;;;;;;1.33;100.00;97893.00;5114635;28;20300;-69
2021/01/08 02:38:18;;;;;;;8.07;5.83;;;;;;;1.31;100.00;97893.97;5114719;28;20214;-69
2021/01/08 02:40:45;;;;;;;7.57;5.80;;;;;;;1.27;100.00;97888.03;5114389;28;20221;-67
2021/01/08 02:43:13;;;;;;;9.53;6.27;;;;;;;1.31;100.00;97889.63;5112813;28;20210;-68
2021/01/08 02:45:39;;;;;;;9.37;6.30;;;;;;;1.31;100.00;97884.41;5114583;28;20260;-72
2021/01/08 02:48:06;;;;;;;8.10;5.80;;;;;;;1.31;100.00;97888.75;5114621;28;20210;-72
2021/01/08 02:50:32;;;;;;;8.23;5.70;;;;;;;1.30;100.00;97887.91;5114434;28;20241;-71
2021/01/08 02:53:03;;;;;;;7.50;5.40;;;;;;;1.31;100.00;97884.41;5114497;28;20666;-71
2021/01/08 02:55:31;;;;;;;9.90;6.57;;;;;;;1.34;100.00;97880.81;5114331;28;20225;-71
2021/01/08 02:57:59;;;;;;;9.60;6.40;;;;;;;1.33;100.00;97882.59;5114013;28;20660;-71
2021/01/08 03:00:27;;;;;;;8.83;5.93;;;;;;;1.38;100.00;97880.69;5114376;28;20222;-71
2021/01/08 03:02:53;;;;;;;9.80;6.07;;;;;;;1.44;100.00;97884.81;5114303;28;20213;-71
2021/01/08 03:05:20;;;;;;;11.00;6.90;;;;;;;1.37;100.00;97879.00;5114243;28;20202;-71
2021/01/08 03:07:47;;;;;;;9.20;6.63;;;;;;;1.41;100.00;97885.75;5114199;28;20265;-71
2021/01/08 03:10:13;;;;;;;10.80;7.30;;;;;;;1.39;100.00;97874.56;5112186;28;20710;-71
2021/01/08 03:12:40;;;;;;;9.97;7.30;;;;;;;1.44;100.00;97874.38;5113628;28;20217;-71
2021/01/08 03:15:10;;;;;;;8.80;6.20;;;;;;;1.36;100.00;97877.25;5114081;28;20573;-72
2021/01/08 03:17:37;;;;;;;9.60;6.43;;;;;;;1.30;100.00;97874.88;5114056;28;20216;-71
2021/01/08 03:20:04;;;;;;;10.80;6.63;;;;;;;1.21;100.00;97877.84;5113969;28;20214;-68
2021/01/08 03:22:30;;;;;;;9.07;6.30;;;;;;;1.19;100.00;97873.59;5113920;28;20209;-66
2021/01/08 03:24:56;;;;;;;10.60;7.03;;;;;;;1.12;100.00;97866.91;5113756;28;20206;-68
2021/01/08 03:27:22;;;;;;;8.67;6.37;;;;;;;1.17;100.00;97871.03;5113906;28;20244;-68
2021/01/08 03:29:48;;;;;;;10.10;6.70;;;;;;;1.09;100.00;97865.28;5113785;28;20277;-68
2021/01/08 03:32:14;;;;;;;9.37;6.30;;;;;;;1.07;100.00;97868.84;5113426;28;20308;-71
2021/01/08 03:34:41;;;;;;;8.23;5.83;;;;;;;0.99;100.00;97861.28;5113485;28;20266;-66
2021/01/08 03:37:07;;;;;;;10.20;6.23;;;;;;;0.98;100.00;97870.00;5112525;28;20212;-66
2021/01/08 03:39:33;;;;;;;9.20;6.07;;;;;;;0.99;100.00;97871.69;5113893;28;20217;-70
2021/01/08 03:41:59;;;;;;;9.90;6.27;;;;;;;0.95;100.00;97870.13;5113816;28;20201;-69
2021/01/08 03:44:24;;;;;;;10.27;6.23;;;;;;;0.92;100.00;97865.03;5113539;28;21591;-71
2021/01/08 03:46:50;;;;;;;9.07;5.57;;;;;;;0.92;100.00;97870.22;5113409;28;20662;-69
2021/01/08 03:49:16;;;;;;;8.17;6.13;;;;;;;0.89;100.00;97859.94;5113477;28;20288;-69
2021/01/08 03:51:43;;;;;;;8.63;5.77;;;;;;;0.90;100.00;97866.84;5113320;28;20217;-70
2021/01/08 03:54:09;;;;;;;8.23;6.00;;;;;;;0.83;100.00;97862.75;5113554;28;20212;-68
2021/01/08 03:56:35;;;;;;;8.83;5.87;;;;;;;0.83;100.00;97865.34;5113749;28;20629;-68
2021/01/08 03:59:01;;;;;;;8.03;5.20;;;;;;;0.77;100.00;97864.72;5113413;28;20230;-70
2021/01/08 04:01:27;;;;;;;12.43;5.93;;;;;;;0.80;100.00;97860.25;5111914;28;20569;-68
2021/01/08 04:03:53;;;;;;;9.37;5.83;;;;;;;0.73;100.00;97858.78;5113612;28;20241;-68
2021/01/08 04:06:19;;;;;;;8.03;5.70;;;;;;;0.74;100.00;97854.44;5113493;28;20210;-68
2021/01/08 04:08:46;;;;;;;7.37;5.17;;;;;;;0.73;100.00;97856.16;5113109;28;20217;-68
2021/01/08 04:11:12;;;;;;;8.83;5.47;;;;;;;0.69;100.00;97848.53;5113137;28;20240;-68
2021/01/08 04:13:38;;;;;;;7.63;5.20;;;;;;;0.68;100.00;97854.66;5113441;28;20668;-68
2021/01/08 04:16:04;;;;;;;7.93;5.20;;;;;;;0.65;100.00;97853.00;5113206;28;20241;-68
2021/01/08 04:18:30;;;;;;;6.63;5.23;;;;;;;0.56;100.00;97847.25;5113650;28;20283;-68
2021/01/08 04:20:56;;;;;;;6.20;4.77;;;;;;;0.63;100.00;97846.97;5117347;28;20296;-69
2021/01/08 04:23:22;;;;;;;7.70;5.30;;;;;;;0.67;100.00;97848.56;5117410;28;20202;-69
2021/01/08 04:25:50;;;;;;;7.63;5.40;;;;;;;0.72;100.00;97846.66;5117268;28;20206;-69
2021/01/08 04:28:16;;;;;;;7.00;4.97;;;;;;;0.77;100.00;97849.97;5115614;28;20208;-68
2021/01/08 04:30:42;;;;;;;7.03;4.93;;;;;;;0.76;100.00;97848.28;5117061;28;20657;-68
2021/01/08 04:33:07;;;;;;;7.77;5.63;;;;;;;0.76;100.00;97853.47;5117137;28;20332;-68
2021/01/08 04:35:33;;;;;;;6.47;4.67;;;;;;;0.79;100.00;97855.09;5117416;28;20296;-67
2021/01/08 04:37:59;;;;;;;6.20;4.90;;;;;;;0.84;100.00;97856.66;5117154;28;20634;-68
2021/01/08 04:40:25;;;;;;;8.43;5.40;;;;;;;0.86;100.00;97854.84;5116715;28;20209;-70
2021/01/08 04:42:52;;;;;;;7.23;5.13;;;;;;;0.84;100.00;97846.25;5116974;28;20210;-69
2021/01/08 04:45:18;;;;;;;6.33;4.57;;;;;;;0.79;100.00;97850.75;5116761;28;20235;-73
2021/01/08 04:47:46;;;;;;;7.00;5.10;;;;;;;0.83;100.00;97849.75;5116955;28;20250;-69
2021/01/08 04:50:14;;;;;;;6.73;4.83;;;;;;;0.84;100.00;97851.44;5116459;28;20275;-68
2021/01/08 04:52:40;;;;;;;7.83;5.20;;;;;;;0.78;100.00;97851.66;5116668;28;20210;-68
2021/01/08 04:55:07;;;;;;;7.63;5.47;;;;;;;0.76;100.00;97845.69;5115227;28;20206;-70
2021/01/08 04:57:35;;;;;;;8.10;5.27;;;;;;;0.75;100.00;97841.34;5116708;28;20214;-69
2021/01/08 05:00:04;;;;;;;6.33;4.80;;;;;;;0.81;100.00;97851.53;5116534;28;20722;-69
2021/01/08 05:02:30;;;;;;;7.27;5.10;;;;;;;0.84;100.00;97842.78;5116737;28;20210;-69
2021/01/08 05:04:57;;;;;;;6.97;5.03;;;;;;;0.90;100.00;97840.81;5116229;28;20664;-69
2021/01/08 05:07:26;;;;;;;6.77;5.27;;;;;;;0.98;100.00;97854.41;5116575;28;20209;-68
2021/01/08 05:09:52;;;;;;;6.93;4.90;;;;;;;0.99;100.00;97850.88;5116427;28;20285;-67
2021/01/08 05:12:18;;;;;;;7.10;4.90;;;;;;;1.09;100.00;97851.41;5116497;28;20216;-68
2021/01/08 05:14:44;;;;;;;6.67;4.63;;;;;;;1.12;100.00;97844.31;5116411;28;20631;-68
2021/01/08 05:17:11;;;;;;;8.43;5.20;;;;;;;1.15;100.00;97852.03;5116352;28;20210;-68
2021/01/08 05:19:37;;;;;;;6.57;4.70;;;;;;;1.20;100.00;97850.13;5114354;28;20213;-66
2021/01/08 05:22:04;;;;;;;7.27;5.00;;;;;;;1.29;100.00;97849.75;5116037;28;20220;-66
2021/01/08 05:24:30;;;;;;;8.40;4.97;;;;;;;1.24;100.00;97856.88;5116397;28;20209;-66
2021/01/08 05:27:01;;;;;;;7.17;5.93;;;;;;;1.17;100.00;97860.63;5117746;28;20582;-67
2021/01/08 05:29:28;;;;;;;7.60;5.40;;;;;;;1.17;100.00;97850.22;5118783;28;20230;-67
2021/01/08 05:31:54;;;;;;;8.63;5.17;;;;;;;1.09;100.00;97851.41;5118484;28;20198;-69
2021/01/08 05:34:26;;;;;;;7.03;4.87;;;;;;;1.11;100.00;97844.41;5117726;28;20217;-66
2021/01/08 05:36:52;;;;;;;6.47;4.50;;;;;;;1.11;100.00;97844.41;5116194;27;20623;-66
2021/01/08 05:39:20;;;;;;;6.17;4.57;;;;;;;1.13;100.00;97853.00;5115948;28;20585;-66
2021/01/08 05:41:46;;;;;;;6.67;4.97;;;;;;;1.04;100.00;97850.75;5115665;28;20210;-67
2021/01/08 05:44:14;;;;;;;7.60;4.83;;;;;;;1.03;100.00;97854.22;5115718;28;20258;-66
2021/01/08 05:46:41;;;;;;;6.67;4.53;;;;;;;1.05;100.00;97855.88;5114296;27;20213;-66
2021/01/08 05:49:09;;;;;;;6.67;4.53;;;;;;;1.06;100.00;97852.34;5115512;28;20583;-66
2021/01/08 05:51:36;;;;;;;6.20;4.80;;;;;;;1.05;100.00;97853.25;5115594;28;20206;-68
2021/01/08 05:54:03;;;;;;;9.57;5.57;;;;;;;1.12;100.00;97856.50;5115610;28;20210;-68
2021/01/08 05:56:34;;;;;;;6.73;4.70;;;;;;;1.11;100.00;97860.84;5115773;28;20254;-68
2021/01/08 05:59:03;;;;;;;6.70;4.80;;;;;;;1.14;100.00;97860.75;5115664;28;20717;-69
2021/01/08 06:01:29;;;;;;;6.13;5.00;;;;;;;1.13;100.00;97861.66;5115537;28;20211;-69
2021/01/08 06:03:56;;;;;;;5.27;4.47;;;;;;;1.14;100.00;97852.94;5115350;28;20206;-70
2021/01/08 06:06:24;;;;;;;7.67;5.30;;;;;;;1.11;100.00;97855.66;5115330;28;20210;-69
2021/01/08 06:08:52;;;;;;;7.43;5.47;;;;;;;1.15;100.00;97858.97;5115316;28;20628;-69
2021/01/08 06:11:19;;;;;;;6.83;5.00;;;;;;;1.16;100.00;97858.09;5113632;28;20229;-69
2021/01/08 06:13:50;;;;;;;7.23;5.03;;;;;;;1.15;100.00;97857.25;5115348;28;20202;-69
2021/01/08 06:16:18;;;;;;;8.47;5.77;;;;;;;1.18;100.00;97857.13;5115051;28;20201;-69
2021/01/08 06:18:46;;;;;;;7.83;5.23;;;;;;;1.24;100.00;97861.25;5114948;28;20202;-69
2021/01/08 06:21:12;;;;;;;7.47;5.30;;;;;;;1.21;100.00;97856.16;5115063;28;20275;-69
2021/01/08 06:23:40;;;;;;;7.73;5.10;;;;;;;1.26;100.00;97856.84;5114987;28;20217;-69
2021/01/08 06:26:09;;;;;;;7.03;4.60;;;;;;;1.19;100.00;97864.03;5114997;28;20206;-69
2021/01/08 06:28:38;;;;;;;6.47;4.70;;;;;;;1.24;100.00;97861.25;5114816;28;20206;-69
2021/01/08 06:31:12;;;;;;;6.47;4.47;;;;;;;1.27;100.00;97864.59;5114808;28;20226;-69
2021/01/08 06:33:39;;;;;;;7.20;5.20;;;;;;;1.31;100.00;97861.00;5114880;28;20667;-70
2021/01/08 06:36:26;;;;;;;7.63;5.47;;;;;;;1.33;100.00;97861.78;5114491;28;20209;-70
2021/01/08 06:38:54;;;;;;;6.70;4.87;;;;;;;1.30;100.00;97864.47;5109715;28;20217;-69
2021/01/08 06:41:22;;;;;;;7.53;5.20;;;;;;;1.33;100.00;97859.16;5113850;28;20203;-69
2021/01/08 06:43:55;;;;;;;7.13;4.73;;;;;;;1.39;100.00;97865.88;5114351;28;20739;-69
2021/01/08 06:46:33;;;;;;;7.03;5.00;;;;;;;1.43;100.00;97868.34;5114610;28;20217;-69
2021/01/08 06:49:01;;;;;;;7.17;4.90;;;;;;;1.47;100.00;97869.91;5114599;28;20572;-67
2021/01/08 06:51:29;;;;;;;6.33;4.73;;;;;;;1.44;100.00;97875.25;5114176;28;20225;-68
2021/01/08 06:53:57;;;;;;;7.53;4.90;;;;;;;1.50;100.00;97868.94;5114441;28;20581;-67
2021/01/08 06:56:32;;;;;;;8.07;5.40;;;;;;;1.47;100.00;97869.91;5114049;28;20214;-67
2021/01/08 06:59:00;;;;;;;7.07;4.97;;;;;;;1.47;100.00;97874.28;5114372;28;20253;-67
2021/01/08 07:01:37;;;;;;;7.07;4.90;;;;;;;1.49;100.00;97873.31;5114418;28;20220;-66
2021/01/08 07:04:05;;;;;;;6.77;4.70;;;;;;;1.45;100.00;97876.06;5112365;28;20671;-66
2021/01/08 07:06:34;;;;;;;7.23;5.00;;;;;;;1.44;100.00;97875.25;5114237;28;20259;-66
2021/01/08 07:09:01;;;;;;;7.07;5.07;;;;;;;1.40;100.00;97884.06;5113885;28;20217;-66
2021/01/08 07:11:27;;;;;;;6.23;4.77;;;;;;;1.37;100.00;97885.94;5114133;28;20243;-67
2021/01/08 07:14:05;;;;;;;7.30;4.87;;;;;;;1.39;100.00;97890.19;5113762;28;20249;-67
2021/01/08 07:16:31;;;;;;;7.07;4.97;;;;;;;1.41;100.00;97879.72;5114108;28;20251;-68
2021/01/08 07:19:05;;;;;;;6.87;4.90;;;;;;;1.39;100.00;97886.72;5113982;28;20217;-68
2021/01/08 07:21:32;;;;;;;8.47;5.27;;;;;;;1.37;100.00;97894.63;5113757;28;20714;-68
2021/01/08 07:23:58;;;;;;;6.27;4.43;;;;;;;1.34;100.00;97893.84;5114025;28;20209;-69
2021/01/08 07:26:26;;;;;;;7.03;4.73;;;;;;;1.37;100.00;97894.63;5113970;28;20209;-67
2021/01/08 07:28:53;;;;;;;7.37;4.87;;;;;;;1.38;100.00;97900.66;5113082;28;20570;-67
2021/01/08 07:31:30;;;;;;;6.47;4.40;;;;;;;1.31;100.00;97897.44;5113257;28;20298;-66
2021/01/08 07:33:58;;;;;;;6.37;4.27;;;;;;;1.41;100.00;97903.97;5113934;28;20201;-66
2021/01/08 07:36:25;;;;;;;7.40;4.70;;;;;;;1.38;100.00;97917.13;5113829;28;20207;-68
2021/01/08 07:38:51;;;;;;;5.30;4.07;;;;;;;1.40;100.00;97910.09;5113599;28;20209;-68
2021/01/08 07:41:38;;;;;;;5.80;4.40;;;;;;;1.44;100.00;97906.50;5113878;28;20202;-67
2021/01/08 07:44:34;;;;;;;7.23;4.90;;;;;;;1.45;100.00;97908.19;5114040;28;20234;-66
2021/01/08 07:47:23;;;;;;;6.27;5.03;;;;;;;1.45;100.00;97921.19;5113427;28;20218;-67
2021/01/08 07:50:12;;;;;;;5.47;3.90;;;;;;;1.44;100.00;97911.69;5113547;28;20231;-67
2021/01/08 07:52:43;;;;;;;6.23;4.40;;;;;;;1.45;100.00;97916.00;5113297;28;20679;-67
2021/01/08 07:55:10;;;;;;;5.17;4.13;;;;;;;1.46;100.00;97917.69;5114602;28;20679;-69
2021/01/08 07:58:04;;;;;;;5.23;4.27;;;;;;;1.40;100.00;97927.47;5117956;28;20240;-69
2021/01/08 08:00:31;;;;;;;6.40;4.03;;;;;;;1.40;100.00;97923.13;5117823;28;20217;-69
2021/01/08 08:02:59;;;;;;;5.37;4.10;;;;;;;1.41;100.00;97924.81;5117843;28;20210;-69
2021/01/08 08:05:26;;;;;;;5.67;4.40;;;;;;;1.41;100.00;97924.81;5117707;28;20207;-69
2021/01/08 08:07:55;;;;;;;5.50;3.70;;;;;;;1.42;100.00;97925.69;5117367;28;20210;-69
2021/01/08 08:10:23;;;;;;;6.33;3.83;;;;;;;1.49;100.00;97934.97;5117163;28;20241;-69
2021/01/08 08:12:49;;;;;;;5.60;4.07;;;;;;;1.50;100.00;97932.31;5117159;28;20210;-69
2021/01/08 08:15:16;;;;;;;5.83;4.40;;;;;;;1.51;100.00;97936.59;5117128;28;20210;-68
2021/01/08 08:17:44;;;;;;;4.97;3.80;;;;;;;1.51;100.00;97934.00;5117535;28;20283;-68
2021/01/08 08:20:20;;;;;;;5.80;4.20;;;;;;;1.63;100.00;97933.53;5117353;28;20212;-68
2021/01/08 08:22:47;;;;;;;5.53;4.17;;;;;;;1.73;100.00;97942.69;5115734;28;20214;-68
2021/01/08 08:25:36;;;;;;;4.93;3.90;;;;;;;1.79;100.00;97950.28;5117152;28;20218;-68
2021/01/08 08:28:03;;;;;;;4.60;3.57;;;;;;;1.76;100.00;97950.41;5101434;27;20206;-68
2021/01/08 08:30:29;;;;;;;4.50;3.67;;;;;;;1.82;100.00;97950.19;5116913;28;20256;-68
2021/01/08 08:32:57;;;;;;;5.23;3.57;;;;;;;1.90;99.90;97953.34;5117037;28;20226;-68
2021/01/08 08:35:24;;;;;;;4.20;3.63;;;;;;;1.92;99.60;97953.28;5117164;28;20586;-68
2021/01/08 08:37:54;;;;;;;4.40;3.40;;;;;;;2.00;98.59;97956.44;5117012;28;20206;-68
2021/01/08 08:40:24;;;;;;;4.07;3.30;;;;;;;1.91;98.39;97959.41;5117083;28;20209;-68
2021/01/08 08:42:51;;;;;;;5.33;3.60;;;;;;;1.90;98.94;97971.59;5117009;28;20205;-67
2021/01/08 08:45:23;;;;;;;4.80;3.23;;;;;;;1.85;99.62;97970.91;5116867;28;20214;-67
2021/01/08 08:47:50;;;;;;;4.80;3.80;;;;;;;1.81;100.00;97977.16;5115164;28;20218;-67
2021/01/08 08:50:17;;;;;;;4.47;3.57;;;;;;;1.68;100.00;97975.03;5116761;28;20233;-68
2021/01/08 08:52:45;;;;;;;3.97;3.20;;;;;;;1.74;100.00;97972.22;5115404;28;20586;-66
2021/01/08 08:55:28;;;;;;;4.77;3.57;;;;;;;1.79;100.00;97976.34;5115006;28;20214;-67
2021/01/08 08:58:01;;;;;;;5.13;3.57;;;;;;;1.82;100.00;97973.63;5115394;28;20216;-67
2021/01/08 09:00:28;;;;;;;5.13;3.67;;;;;;;1.78;100.00;97969.44;5115222;28;20206;-67
2021/01/08 09:02:54;;;;;;;4.60;3.27;;;;;;;1.91;100.00;97969.84;5112550;28;20209;-68
2021/01/08 09:05:20;;;;;;;5.00;3.13;;;;;;;1.97;100.00;97970.44;5116104;28;20209;-67
2021/01/08 09:07:53;;;;;;;5.07;3.37;;;;;;;1.82;100.00;97971.03;5116204;28;20210;-67
2021/01/08 09:10:22;;;;;;;5.00;3.60;;;;;;;1.89;100.00;97982.91;5116316;28;20230;-66
2021/01/08 09:12:54;;;;;;;5.77;4.07;;;;;;;1.89;100.00;97979.47;5116399;28;20566;-66
2021/01/08 09:15:26;;;;;;;4.43;3.47;;;;;;;1.93;100.00;97979.31;5115242;28;20202;-65
2021/01/08 09:18:01;;;;;;;4.77;3.73;;;;;;;2.04;100.00;97977.16;5116403;28;20206;-68
2021/01/08 09:20:29;;;;;;;3.40;3.03;;;;;;;2.04;100.00;97979.75;5116128;28;20202;-67
2021/01/08 09:22:56;;;;;;;4.13;3.50;;;;;;;2.08;100.00;97983.09;5116470;28;20217;-65
2021/01/08 09:25:23;;;;;;;4.27;3.53;;;;;;;2.06;100.00;97988.34;5115986;28;20206;-66
2021/01/08 09:27:49;;;;;;;4.00;3.43;;;;;;;2.02;100.00;97978.94;5116150;28;20210;-66
2021/01/08 09:30:16;;;;;;;4.87;3.60;;;;;;;2.05;100.00;97991.88;5116074;28;20226;-69
2021/01/08 09:32:42;;;;;;;3.93;3.47;;;;;;;2.05;100.00;97988.41;5115553;28;20213;-67
2021/01/08 09:35:10;;;;;;;5.57;4.07;;;;;;;2.07;100.00;97995.25;5116038;28;20245;-66
2021/01/08 09:37:43;;;;;;;5.07;3.70;;;;;;;2.19;100.00;97989.56;5115933;28;20214;-69
2021/01/08 09:40:15;;;;;;;5.27;3.70;;;;;;;2.26;100.00;97995.44;5114323;28;20222;-69
2021/01/08 09:42:42;;;;;;;5.50;4.00;;;;;;;2.28;100.00;97989.22;5115747;28;20236;-67
2021/01/08 09:45:20;;;;;;;4.70;3.60;;;;;;;2.33;100.00;97989.88;5115525;28;20675;-66
2021/01/08 09:47:46;;;;;;;5.07;3.87;;;;;;;2.33;100.00;97989.88;5115400;28;20690;-67
2021/01/08 09:50:25;;;;;;;5.77;3.53;;;;;;;2.38;100.00;97998.38;5115333;28;20233;-68
2021/01/08 09:52:51;;;;;;;4.93;3.77;;;;;;;2.40;100.00;97999.16;5115823;28;20206;-67
2021/01/08 09:55:25;;;;;;;4.00;3.47;;;;;;;2.45;100.00;97997.22;5115340;28;20210;-68
2021/01/08 09:57:58;;;;;;;4.10;3.50;;;;;;;2.42;100.00;97994.75;5115117;28;20694;-67
2021/01/08 10:00:29;;;;;;;4.20;3.27;;;;;;;2.42;100.00;97999.97;5115526;28;20206;-68
2021/01/08 10:02:56;;;;;;;3.77;3.37;;;;;;;2.39;100.00;98000.09;5115273;28;20207;-67
2021/01/08 10:05:27;;;;;;;4.23;3.37;;;;;;;2.38;100.00;98003.59;5113625;28;20205;-68
2021/01/08 10:07:54;;;;;;;5.30;3.60;;;;;;;2.44;100.00;98000.75;5115318;28;20213;-68
2021/01/08 10:10:41;;;;;;;4.20;3.50;;;;;;;2.48;100.00;98002.34;5114975;28;20237;-67
2021/01/08 10:13:16;;;;;;;3.63;3.00;;;;;;;2.51;99.63;98004.81;5115195;28;20214;-67
2021/01/08 10:15:46;;;;;;;4.93;3.20;;;;;;;2.50;98.46;97997.91;5115172;28;20221;-68
2021/01/08 10:18:14;;;;;;;4.33;3.50;;;;;;;2.44;99.53;97997.31;5114341;28;20207;-68
2021/01/08 10:20:46;;;;;;;5.90;3.50;;;;;;;2.42;100.00;98004.31;5115275;28;20214;-68
2021/01/08 10:23:13;;;;;;;6.00;3.73;;;;;;;2.40;100.00;98000.94;5115147;28;20233;-66
2021/01/08 10:25:40;;;;;;;4.53;3.80;;;;;;;2.34;100.00;98007.22;5111690;28;20226;-69
2021/01/08 10:28:12;;;;;;;4.43;3.50;;;;;;;2.20;100.00;98009.53;5113933;28;20206;-68
2021/01/08 10:30:39;;;;;;;6.20;4.03;;;;;;;2.11;100.00;98009.88;5114531;28;20764;-66
2021/01/08 10:33:05;;;;;;;4.43;3.57;;;;;;;1.94;100.00;98001.84;5112848;28;20210;-68
2021/01/08 10:35:31;;;;;;;5.77;4.20;;;;;;;1.93;100.00;98001.91;5114673;28;20214;-67
2021/01/08 10:37:57;;;;;;;3.63;3.30;;;;;;;2.03;100.00;98001.47;5114832;28;20206;-67
2021/01/08 10:40:23;;;;;;;6.20;4.03;;;;;;;2.03;100.00;98000.66;5114887;28;20216;-67
2021/01/08 10:42:51;;;;;;;6.23;4.30;;;;;;;2.10;100.00;97997.75;5114542;28;20210;-67
2021/01/08 10:45:18;;;;;;;5.17;4.00;;;;;;;2.17;100.00;97999.22;5114637;28;20210;-67
2021/01/08 10:47:44;;;;;;;5.57;4.37;;;;;;;2.24;100.00;97999.81;5114160;28;20667;-67
2021/01/08 10:50:11;;;;;;;6.90;5.03;;;;;;;2.31;100.00;97996.94;5114344;28;20240;-67
2021/01/08 10:52:37;;;;;;;6.87;4.97;;;;;;;2.33;100.00;97995.09;5114422;28;20206;-67
2021/01/08 10:55:04;;;;;;;6.63;4.80;;;;;;;2.41;100.00;98003.50;5114129;28;20687;-67
2021/01/08 10:57:30;;;;;;;6.20;4.57;;;;;;;2.40;100.00;97996.56;5109297;28;20217;-67
2021/01/08 10:59:56;;;;;;;6.57;4.87;;;;;;;2.38;100.00;98001.00;5113458;28;20265;-68
2021/01/08 11:02:22;;;;;;;6.67;4.90;;;;;;;2.36;100.00;97991.53;5112345;28;20255;-69
2021/01/08 11:04:49;;;;;;;6.90;5.23;;;;;;;2.37;100.00;97990.63;5112033;28;20309;-67
2021/01/08 11:07:15;;;;;;;7.47;5.53;;;;;;;2.30;100.00;97992.63;5099555;28;20599;-67
2021/01/08 11:09:41;;;;;;;10.77;7.10;;;;;;;2.24;100.00;97984.19;5091369;28;20216;-68
2021/01/08 11:12:08;;;;;;;8.63;5.77;;;;;;;2.05;100.00;97981.44;5091710;28;20214;-69
2021/01/08 11:14:34;;;;;;;7.63;6.40;;;;;;;2.10;100.00;97987.34;5092141;28;20714;-68
2021/01/08 11:17:00;;;;;;;8.87;5.83;;;;;;;2.09;100.00;97984.78;5091788;28;20215;-68
2021/01/08 11:19:27;;;;;;;7.90;5.27;;;;;;;2.06;100.00;97975.31;5091596;28;20214;-67
2021/01/08 11:21:53;;;;;;;8.20;6.20;;;;;;;2.10;100.00;97974.31;5092358;28;20221;-68
2021/01/08 11:24:19;;;;;;;7.27;5.90;;;;;;;2.10;100.00;97982.13;5090830;28;20203;-68
2021/01/08 11:26:45;;;;;;;8.27;6.03;;;;;;;2.07;100.00;97977.00;5093134;28;20211;-70
2021/01/08 11:29:11;;;;;;;7.80;5.90;;;;;;;2.01;100.00;97979.84;5092827;28;20222;-68
2021/01/08 11:31:38;;;;;;;8.80;6.00;;;;;;;1.93;100.00;97974.09;5103386;28;20265;-67
2021/01/08 11:34:05;;;;;;;7.17;5.27;;;;;;;2.09;100.00;97969.97;5112913;28;20713;-67
2021/01/08 11:36:32;;;;;;;11.07;6.50;;;;;;;2.08;100.00;97972.66;5094537;28;20687;-67